首页
METAR-TAF:

METAR-TAF

机场 :

Trenton-Mercer Airport

特伦顿, 新泽西州, 美国

纬度: 40-16-35N, 经度: 074-48-59W, 海拔: 64米

当前天气观测

该预报发布于19分钟前的10:53 UTC
风速3节,风向西北
温度 22°C
湿度 83%
气压 1020 hPa
能見度: 16.1公里
天空无云

METAR: KTTN 271053Z 32003KT 10SM CLR 22/19 A3013 RMK AO2 SLP194 T02220189

时间: 07:12 (11:12 UTC)

预报

该预报发布于5小时和51分钟前的05:21 UTC
预报有效从27日的 06点(UTC)到 28日的 06点(UTC)
风速3节,风向多变
能見度: 10公里
散云层高于6000英尺
从 27日的 1100点(UTC)
风速4节,风向北转西北
能見度: 10公里
散云层高于25000英尺
从 27日的 1700点(UTC)
风速6节,风向西北
能見度: 10公里
少量云层高于5000英尺
从 28日的 0100点(UTC)
风速3节,风向多变
能見度: 10公里
散云层高于5000英尺

TAF: KTTN 270521Z 2706/2806 VRB03KT P6SM SCT060 FM271100 34004KT P6SM SCT250 FM271700 31006KT P6SM FEW050 FM280100 VRB03KT P6SM SCT050

超过4000个机场的气象观测和天气预报(METAR&TAF报告)。

可查询的气象台以黄色和红色小点在地图上表示。

将鼠标移到小点上方,可查看气象台名称。

然后点击查看天气观测和预报。

如需切换地图:点击带黑十字的绿色按钮放大地图;点击带横线的绿色按钮缩小地图;或者点击绿色箭头查看邻近地区的地图。


METAR-TAF: